sensor_id;sensor_type;location;lat;lon;timestamp;temperature;humidity
23769;DHT22;12064;50.890;5.424;2023-05-20T00:08:31;21.60;80.10
23769;DHT22;12064;50.890;5.424;2023-05-20T00:17:24;21.60;80.10
23769;DHT22;12064;50.890;5.424;2023-05-20T00:26:17;21.60;80.20
23769;DHT22;12064;50.890;5.424;2023-05-20T00:35:08;21.60;80.30
23769;DHT22;12064;50.890;5.424;2023-05-20T00:44:00;21.60;80.50
23769;DHT22;12064;50.890;5.424;2023-05-20T00:52:51;21.50;80.60
23769;DHT22;12064;50.890;5.424;2023-05-20T01:01:44;21.50;80.60
23769;DHT22;12064;50.890;5.424;2023-05-20T01:10:39;21.50;80.70
23769;DHT22;12064;50.890;5.424;2023-05-20T01:19:41;21.50;80.90
23769;DHT22;12064;50.890;5.424;2023-05-20T01:28:35;21.40;80.90
23769;DHT22;12064;50.890;5.424;2023-05-20T01:37:28;21.40;81.20
23769;DHT22;12064;50.890;5.424;2023-05-20T01:46:20;21.30;81.30
23769;DHT22;12064;50.890;5.424;2023-05-20T01:55:11;21.30;81.40
23769;DHT22;12064;50.890;5.424;2023-05-20T02:04:03;21.30;81.60
23769;DHT22;12064;50.890;5.424;2023-05-20T02:12:53;21.30;81.50
23769;DHT22;12064;50.890;5.424;2023-05-20T02:21:44;21.30;81.80
23769;DHT22;12064;50.890;5.424;2023-05-20T02:30:37;21.20;82.10
23769;DHT22;12064;50.890;5.424;2023-05-20T02:39:31;21.20;81.90
23769;DHT22;12064;50.890;5.424;2023-05-20T02:48:22;21.10;81.90
23769;DHT22;12064;50.890;5.424;2023-05-20T02:57:12;21.10;82.10
23769;DHT22;12064;50.890;5.424;2023-05-20T03:06:03;21.10;82.20
23769;DHT22;12064;50.890;5.424;2023-05-20T03:14:54;21.10;82.40
23769;DHT22;12064;50.890;5.424;2023-05-20T03:23:44;21.00;82.40
23769;DHT22;12064;50.890;5.424;2023-05-20T03:32:35;21.00;82.60
23769;DHT22;12064;50.890;5.424;2023-05-20T03:41:26;21.00;83.20
23769;DHT22;12064;50.890;5.424;2023-05-20T03:50:17;21.00;82.90
23769;DHT22;12064;50.890;5.424;2023-05-20T03:59:07;20.90;83.00
23769;DHT22;12064;50.890;5.424;2023-05-20T04:07:59;20.90;81.80
23769;DHT22;12064;50.890;5.424;2023-05-20T04:16:49;20.80;79.80
23769;DHT22;12064;50.890;5.424;2023-05-20T04:25:40;20.80;79.00
23769;DHT22;12064;50.890;5.424;2023-05-20T04:34:31;20.70;78.30
23769;DHT22;12064;50.890;5.424;2023-05-20T04:43:24;20.70;77.90
23769;DHT22;12064;50.890;5.424;2023-05-20T04:52:15;20.70;78.60
23769;DHT22;12064;50.890;5.424;2023-05-20T05:01:07;20.60;76.50
23769;DHT22;12064;50.890;5.424;2023-05-20T05:09:58;20.50;74.90
23769;DHT22;12064;50.890;5.424;2023-05-20T05:18:49;20.50;73.30
23769;DHT22;12064;50.890;5.424;2023-05-20T05:27:40;20.50;72.70
23769;DHT22;12064;50.890;5.424;2023-05-20T05:36:32;19.80;72.80
23769;DHT22;12064;50.890;5.424;2023-05-20T05:45:23;19.90;73.20
23769;DHT22;12064;50.890;5.424;2023-05-20T05:54:13;20.20;71.50
23769;DHT22;12064;50.890;5.424;2023-05-20T06:03:04;20.30;71.30
23769;DHT22;12064;50.890;5.424;2023-05-20T06:11:54;20.30;71.00
23769;DHT22;12064;50.890;5.424;2023-05-20T06:20:45;20.40;71.30
23769;DHT22;12064;50.890;5.424;2023-05-20T06:29:36;20.40;71.00
23769;DHT22;12064;50.890;5.424;2023-05-20T06:38:26;20.50;71.50
23769;DHT22;12064;50.890;5.424;2023-05-20T06:47:17;20.60;71.90
23769;DHT22;12064;50.890;5.424;2023-05-20T06:56:08;20.80;72.20
23769;DHT22;12064;50.890;5.424;2023-05-20T07:04:59;20.90;72.40
23769;DHT22;12064;50.890;5.424;2023-05-20T07:13:49;20.90;72.40
23769;DHT22;12064;50.890;5.424;2023-05-20T07:22:40;21.10;72.50
23769;DHT22;12064;50.890;5.424;2023-05-20T07:31:31;21.20;72.50
23769;DHT22;12064;50.890;5.424;2023-05-20T07:40:21;21.30;73.20
23769;DHT22;12064;50.890;5.424;2023-05-20T07:49:12;21.40;72.40
23769;DHT22;12064;50.890;5.424;2023-05-20T07:58:03;21.60;72.00
23769;DHT22;12064;50.890;5.424;2023-05-20T08:06:55;21.70;72.00
23769;DHT22;12064;50.890;5.424;2023-05-20T08:15:45;21.80;71.80
23769;DHT22;12064;50.890;5.424;2023-05-20T08:24:37;21.90;71.80
23769;DHT22;12064;50.890;5.424;2023-05-20T08:33:28;21.90;71.70
23769;DHT22;12064;50.890;5.424;2023-05-20T08:42:22;21.90;71.80
23769;DHT22;12064;50.890;5.424;2023-05-20T08:51:15;22.00;71.70
23769;DHT22;12064;50.890;5.424;2023-05-20T09:00:07;22.10;71.50
23769;DHT22;12064;50.890;5.424;2023-05-20T09:09:02;22.20;71.50
23769;DHT22;12064;50.890;5.424;2023-05-20T09:17:54;22.30;71.30
23769;DHT22;12064;50.890;5.424;2023-05-20T09:26:49;22.50;70.80
23769;DHT22;12064;50.890;5.424;2023-05-20T09:35:40;22.40;71.30
23769;DHT22;12064;50.890;5.424;2023-05-20T09:44:32;22.30;72.00
23769;DHT22;12064;50.890;5.424;2023-05-20T09:53:26;22.20;72.10
23769;DHT22;12064;50.890;5.424;2023-05-20T10:02:18;22.30;72.20
23769;DHT22;12064;50.890;5.424;2023-05-20T10:11:16;22.30;72.20
23769;DHT22;12064;50.890;5.424;2023-05-20T10:20:09;22.20;72.60
23769;DHT22;12064;50.890;5.424;2023-05-20T10:29:01;22.30;72.60
23769;DHT22;12064;50.890;5.424;2023-05-20T10:37:53;22.20;72.80
23769;DHT22;12064;50.890;5.424;2023-05-20T10:46:44;22.30;72.70
23769;DHT22;12064;50.890;5.424;2023-05-20T10:55:36;22.30;72.90
23769;DHT22;12064;50.890;5.424;2023-05-20T11:04:28;22.30;73.10
23769;DHT22;12064;50.890;5.424;2023-05-20T11:13:19;22.30;73.10
23769;DHT22;12064;50.890;5.424;2023-05-20T11:22:10;22.30;73.20
23769;DHT22;12064;50.890;5.424;2023-05-20T11:31:01;22.30;73.40
23769;DHT22;12064;50.890;5.424;2023-05-20T11:40:05;22.30;73.60
23769;DHT22;12064;50.890;5.424;2023-05-20T11:49:00;22.30;73.60
23769;DHT22;12064;50.890;5.424;2023-05-20T11:57:50;22.30;73.80
23769;DHT22;12064;50.890;5.424;2023-05-20T12:06:41;22.30;73.80
23769;DHT22;12064;50.890;5.424;2023-05-20T12:15:35;22.30;73.90
23769;DHT22;12064;50.890;5.424;2023-05-20T12:24:26;22.30;74.00
23769;DHT22;12064;50.890;5.424;2023-05-20T12:33:16;22.40;74.00
23769;DHT22;12064;50.890;5.424;2023-05-20T12:42:07;22.30;74.20
23769;DHT22;12064;50.890;5.424;2023-05-20T12:50:58;22.40;74.20
23769;DHT22;12064;50.890;5.424;2023-05-20T12:59:49;22.40;75.00
23769;DHT22;12064;50.890;5.424;2023-05-20T13:08:40;22.40;74.30
23769;DHT22;12064;50.890;5.424;2023-05-20T13:17:31;22.30;74.30
23769;DHT22;12064;50.890;5.424;2023-05-20T13:26:21;22.40;74.50
23769;DHT22;12064;50.890;5.424;2023-05-20T13:35:12;22.40;74.50
23769;DHT22;12064;50.890;5.424;2023-05-20T13:44:04;22.40;74.60
23769;DHT22;12064;50.890;5.424;2023-05-20T13:52:54;22.50;74.40
23769;DHT22;12064;50.890;5.424;2023-05-20T14:01:45;22.50;74.60
23769;DHT22;12064;50.890;5.424;2023-05-20T14:10:36;22.50;74.60
23769;DHT22;12064;50.890;5.424;2023-05-20T14:19:27;22.50;74.80
23769;DHT22;12064;50.890;5.424;2023-05-20T14:28:18;22.50;74.90
23769;DHT22;12064;50.890;5.424;2023-05-20T14:37:08;22.50;75.00
23769;DHT22;12064;50.890;5.424;2023-05-20T14:46:02;22.50;75.10
23769;DHT22;12064;50.890;5.424;2023-05-20T14:54:52;22.50;75.20
23769;DHT22;12064;50.890;5.424;2023-05-20T15:03:43;22.40;75.20
23769;DHT22;12064;50.890;5.424;2023-05-20T15:12:34;22.50;75.30
23769;DHT22;12064;50.890;5.424;2023-05-20T15:21:24;22.40;75.30
23769;DHT22;12064;50.890;5.424;2023-05-20T15:30:16;22.50;75.40
23769;DHT22;12064;50.890;5.424;2023-05-20T15:39:06;22.40;75.50
23769;DHT22;12064;50.890;5.424;2023-05-20T15:47:57;22.50;75.40
23769;DHT22;12064;50.890;5.424;2023-05-20T15:56:48;22.40;75.50
23769;DHT22;12064;50.890;5.424;2023-05-20T16:05:39;22.50;75.50
23769;DHT22;12064;50.890;5.424;2023-05-20T16:14:29;22.50;75.70
23769;DHT22;12064;50.890;5.424;2023-05-20T16:23:20;22.50;75.70
23769;DHT22;12064;50.890;5.424;2023-05-20T16:32:11;22.50;75.70
23769;DHT22;12064;50.890;5.424;2023-05-20T16:41:01;22.40;75.90
23769;DHT22;12064;50.890;5.424;2023-05-20T16:49:52;22.40;76.10
23769;DHT22;12064;50.890;5.424;2023-05-20T16:58:42;22.40;76.10
23769;DHT22;12064;50.890;5.424;2023-05-20T17:07:34;22.40;76.30
23769;DHT22;12064;50.890;5.424;2023-05-20T17:16:25;22.30;76.30
23769;DHT22;12064;50.890;5.424;2023-05-20T17:25:16;22.40;76.30
23769;DHT22;12064;50.890;5.424;2023-05-20T17:34:06;22.30;76.50
23769;DHT22;12064;50.890;5.424;2023-05-20T17:42:57;22.40;76.50
23769;DHT22;12064;50.890;5.424;2023-05-20T17:51:47;22.30;76.60
23769;DHT22;12064;50.890;5.424;2023-05-20T18:00:39;22.30;76.60
23769;DHT22;12064;50.890;5.424;2023-05-20T18:09:32;22.30;76.60
23769;DHT22;12064;50.890;5.424;2023-05-20T18:18:22;22.30;76.80
23769;DHT22;12064;50.890;5.424;2023-05-20T18:27:16;22.30;76.70
23769;DHT22;12064;50.890;5.424;2023-05-20T18:36:07;22.30;76.80
23769;DHT22;12064;50.890;5.424;2023-05-20T18:44:57;22.30;76.80
23769;DHT22;12064;50.890;5.424;2023-05-20T18:53:48;22.30;76.70
23769;DHT22;12064;50.890;5.424;2023-05-20T19:02:39;22.30;76.80
23769;DHT22;12064;50.890;5.424;2023-05-20T19:11:30;22.30;76.70
23769;DHT22;12064;50.890;5.424;2023-05-20T19:20:20;22.30;76.80
23769;DHT22;12064;50.890;5.424;2023-05-20T19:29:11;22.30;76.80
23769;DHT22;12064;50.890;5.424;2023-05-20T19:38:04;22.30;76.90
23769;DHT22;12064;50.890;5.424;2023-05-20T19:46:56;22.30;76.90
23769;DHT22;12064;50.890;5.424;2023-05-20T19:55:46;22.20;77.00
23769;DHT22;12064;50.890;5.424;2023-05-20T20:04:38;22.20;76.90
23769;DHT22;12064;50.890;5.424;2023-05-20T20:13:29;22.20;77.00
23769;DHT22;12064;50.890;5.424;2023-05-20T20:22:19;22.20;77.10
23769;DHT22;12064;50.890;5.424;2023-05-20T20:31:10;22.20;77.10
23769;DHT22;12064;50.890;5.424;2023-05-20T20:40:01;22.20;77.20
23769;DHT22;12064;50.890;5.424;2023-05-20T20:49:02;22.20;77.50
23769;DHT22;12064;50.890;5.424;2023-05-20T20:57:52;22.20;77.40
23769;DHT22;12064;50.890;5.424;2023-05-20T21:06:43;22.20;77.60
23769;DHT22;12064;50.890;5.424;2023-05-20T21:15:36;22.20;77.70
23769;DHT22;12064;50.890;5.424;2023-05-20T21:24:27;22.20;77.80
23769;DHT22;12064;50.890;5.424;2023-05-20T21:33:18;22.20;78.70
23769;DHT22;12064;50.890;5.424;2023-05-20T21:42:09;22.10;78.10
23769;DHT22;12064;50.890;5.424;2023-05-20T21:50:59;22.10;78.30
23769;DHT22;12064;50.890;5.424;2023-05-20T21:59:50;22.10;78.40
23769;DHT22;12064;50.890;5.424;2023-05-20T22:08:41;22.00;78.60
23769;DHT22;12064;50.890;5.424;2023-05-20T22:17:32;22.00;78.70
23769;DHT22;12064;50.890;5.424;2023-05-20T22:26:23;22.00;78.80
23769;DHT22;12064;50.890;5.424;2023-05-20T22:35:14;22.00;78.90
23769;DHT22;12064;50.890;5.424;2023-05-20T22:44:05;22.00;79.10
23769;DHT22;12064;50.890;5.424;2023-05-20T22:52:56;22.00;79.30
23769;DHT22;12064;50.890;5.424;2023-05-20T23:01:46;21.90;79.30
23769;DHT22;12064;50.890;5.424;2023-05-20T23:10:37;21.90;79.40
23769;DHT22;12064;50.890;5.424;2023-05-20T23:19:28;21.90;79.40
23769;DHT22;12064;50.890;5.424;2023-05-20T23:28:20;21.90;79.40
23769;DHT22;12064;50.890;5.424;2023-05-20T23:37:10;21.80;79.60
23769;DHT22;12064;50.890;5.424;2023-05-20T23:46:01;21.80;79.70
23769;DHT22;12064;50.890;5.424;2023-05-20T23:54:52;21.80;79.80
